Time;durP1;ratioP1;P1;durP2;ratioP2;P2;SDS_P1;SDS_P2;PMS_P1;PMS_P2;Temp;Humidity;BMP_temperature;BMP_pressure;BME280_temperature;BME280_humidity;BME280_pressure;Samples;Min_cycle;Max_cycle;Signal;HPM_P1;HPM_P2
2023/05/12 03:36:54;;;;;;;16.00;8.40;;;;;;;10.31;47.33;100099.98;80062;1299;3013614;-62
2023/05/12 03:39:24;;;;;;;18.20;8.20;;;;;;;10.34;47.37;100102.98;79106;1298;3011753;-69
2023/05/12 03:41:53;;;;;;;18.20;8.10;;;;;;;10.36;47.22;100100.29;78485;1303;3011946;-68
2023/05/12 03:44:20;;;;;;;17.60;8.50;;;;;;;10.41;46.72;100098.46;79162;1305;3012985;-65
2023/05/12 03:46:46;;;;;;;17.50;8.70;;;;;;;10.46;46.27;100100.48;78946;1301;3011588;-67
2023/05/12 03:49:14;;;;;;;18.70;8.60;;;;;;;10.50;46.29;100097.85;75913;1301;3024634;-67
2023/05/12 03:51:40;;;;;;;17.60;9.30;;;;;;;10.60;45.67;100100.32;79420;1301;3012900;-71
2023/05/12 03:54:07;;;;;;;17.90;9.00;;;;;;;10.64;45.50;100098.73;79202;1294;3015481;-67
2023/05/12 03:56:35;;;;;;;19.20;10.10;;;;;;;10.68;44.85;100100.25;78040;1301;3027077;-67
2023/05/12 03:59:02;;;;;;;19.70;10.10;;;;;;;10.79;45.02;100096.89;79570;1295;3018757;-69
2023/05/12 04:01:29;;;;;;;20.60;9.50;;;;;;;10.83;44.61;100098.09;79458;1298;3011570;-69
2023/05/12 04:03:57;;;;;;;19.50;9.00;;;;;;;10.89;44.51;100099.86;78531;1293;3050844;-71
2023/05/12 04:06:24;;;;;;;20.40;8.30;;;;;;;10.89;44.50;100099.36;79629;1295;3012995;-66
2023/05/12 04:08:50;;;;;;;21.60;9.10;;;;;;;10.95;44.98;100104.86;79588;1292;3012121;-67
2023/05/12 04:11:18;;;;;;;20.00;9.50;;;;;;;11.00;45.32;100099.84;78421;1298;3026309;-71
2023/05/12 04:13:44;;;;;;;19.30;8.00;;;;;;;11.10;44.49;100098.14;79455;1298;3013308;-71
2023/05/12 04:16:11;;;;;;;18.10;8.20;;;;;;;11.15;44.32;100100.63;79735;1295;3011640;-66
2023/05/12 04:18:38;;;;;;;21.60;8.40;;;;;;;11.27;44.24;100097.07;78572;1293;3026529;-71
2023/05/12 04:21:07;;;;;;;18.90;6.70;;;;;;;11.34;43.71;100100.13;79788;1293;3012861;-69
2023/05/12 04:23:34;;;;;;;16.90;7.40;;;;;;;11.38;43.04;100101.18;79471;1292;3011749;-64
2023/05/12 04:26:04;;;;;;;14.00;7.10;;;;;;;11.50;43.91;100101.05;78638;1292;3049984;-71
2023/05/12 04:28:31;;;;;;;12.50;6.80;;;;;;;11.55;43.24;100102.86;79821;1292;3014022;-66
2023/05/12 04:31:03;;;;;;;13.20;6.40;;;;;;;11.63;42.77;100104.00;79753;1296;3011692;-71
2023/05/12 04:33:31;;;;;;;13.90;6.00;;;;;;;11.69;42.89;100103.35;78408;1293;3051531;-66
2023/05/12 04:35:58;;;;;;;10.20;5.40;;;;;;;11.77;42.55;100101.88;79560;1296;3013370;-68
2023/05/12 04:38:25;;;;;;;13.80;5.50;;;;;;;11.78;41.44;100102.15;79580;1292;3011705;-67
2023/05/12 04:40:57;;;;;;;13.60;6.10;;;;;;;11.82;41.44;100101.94;78405;1298;3026354;-70
2023/05/12 04:43:24;;;;;;;12.00;5.50;;;;;;;11.85;41.06;100102.47;79613;1298;3011954;-69
2023/05/12 04:45:54;;;;;;;9.70;5.00;;;;;;;11.95;41.72;100105.27;78295;1299;3052174;-67
2023/05/12 04:48:21;;;;;;;11.80;4.60;;;;;;;12.10;41.73;100099.35;79887;1298;3013266;-72
2023/05/12 04:50:51;;;;;;;8.40;4.10;;;;;;;12.26;41.45;100102.84;79133;1300;3013153;-69
2023/05/12 04:53:17;;;;;;;9.30;4.60;;;;;;;12.33;40.36;100104.35;79797;1293;3012712;-70
2023/05/12 04:55:44;;;;;;;11.00;4.60;;;;;;;12.37;40.78;100101.67;79524;1293;3011596;-67
2023/05/12 04:58:13;;;;;;;8.70;4.40;;;;;;;12.43;40.89;100103.12;78638;1296;3049946;-68
2023/05/12 05:00:39;;;;;;;11.50;4.20;;;;;;;12.51;40.52;100109.29;79695;1300;3013605;-67
2023/05/12 05:03:06;;;;;;;9.90;3.70;;;;;;;12.62;40.09;100107.80;79688;1295;3011850;-67
2023/05/12 05:05:34;;;;;;;8.20;3.40;;;;;;;12.68;39.81;100107.77;78530;1300;3025883;-65
2023/05/12 05:08:01;;;;;;;9.90;3.30;;;;;;;12.81;39.88;100108.06;79504;1295;3013461;-69
2023/05/12 05:10:28;;;;;;;5.90;3.20;;;;;;;12.90;39.19;100107.02;79687;1300;3011257;-66
2023/05/12 05:12:55;;;;;;;8.60;3.30;;;;;;;13.00;39.35;100107.30;78691;1296;3027301;-66
2023/05/12 05:15:22;;;;;;;7.70;3.20;;;;;;;13.08;39.11;100111.20;79727;1298;3018809;-65
2023/05/12 05:17:49;;;;;;;5.10;2.80;;;;;;;13.19;39.37;100113.88;79318;1296;3013201;-69
2023/05/12 05:20:17;;;;;;;6.00;3.30;;;;;;;13.32;39.44;100113.63;78280;1298;3026906;-69
2023/05/12 05:22:44;;;;;;;5.80;2.90;;;;;;;13.43;39.65;100115.06;79377;1299;3013606;-70
2023/05/12 05:25:12;;;;;;;10.20;3.20;;;;;;;13.54;39.19;100117.41;79729;1293;3013023;-67
2023/05/12 05:27:40;;;;;;;6.00;2.90;;;;;;;13.59;38.64;100117.56;78393;1293;3050728;-67
2023/05/12 05:30:10;;;;;;;5.20;2.70;;;;;;;13.68;38.69;100120.53;79626;1300;3012690;-69
2023/05/12 05:32:40;;;;;;;8.90;3.30;;;;;;;13.76;38.64;100119.33;78722;1293;3068772;-67
2023/05/12 05:35:07;;;;;;;9.10;3.40;;;;;;;13.85;38.35;100121.77;79567;1292;3013530;-69
2023/05/12 05:37:38;;;;;;;6.80;3.20;;;;;;;13.91;37.95;100119.48;78660;1293;3050077;-71
2023/05/12 05:40:06;;;;;;;6.40;2.80;;;;;;;13.97;37.63;100121.16;79692;1300;3012649;-68
2023/05/12 05:42:33;;;;;;;6.00;3.00;;;;;;;14.08;37.52;100120.13;79859;1293;3013266;-66
2023/05/12 05:45:01;;;;;;;6.90;2.80;;;;;;;14.19;37.13;100122.20;78098;1296;3053381;-65
2023/05/12 05:47:31;;;;;;;5.10;2.30;;;;;;;14.31;37.45;100123.42;79527;1294;3013528;-67
2023/05/12 05:50:00;;;;;;;5.30;2.60;;;;;;;14.42;37.29;100120.89;79308;1295;3011469;-70
2023/05/12 05:52:26;;;;;;;4.40;2.80;;;;;;;14.49;36.68;100120.98;79839;1296;3011691;-67
2023/05/12 05:54:53;;;;;;;6.30;2.90;;;;;;;14.48;36.98;100127.75;79739;1298;3011820;-66
2023/05/12 05:57:22;;;;;;;9.50;3.10;;;;;;;14.58;36.61;100125.12;78703;1298;3050667;-70
2023/05/12 05:59:50;;;;;;;7.50;2.70;;;;;;;14.65;35.87;100129.29;79724;1296;3013397;-72
2023/05/12 06:02:17;;;;;;;6.00;3.40;;;;;;;14.73;35.95;100128.55;79375;1296;3012735;-72
2023/05/12 06:04:45;;;;;;;8.30;3.20;;;;;;;14.84;36.17;100128.55;78396;1296;3050124;-68
2023/05/12 06:07:12;;;;;;;8.00;3.60;;;;;;;14.94;35.53;100127.66;79857;1293;3013160;-67
2023/05/12 06:09:38;;;;;;;8.70;4.50;;;;;;;15.02;35.90;100128.90;79782;1301;3012465;-67
2023/05/12 06:12:07;;;;;;;10.40;4.30;;;;;;;15.13;35.48;100126.90;78532;1293;3028944;-66
2023/05/12 06:14:34;;;;;;;18.30;5.30;;;;;;;15.17;34.97;100121.73;79560;1298;3013420;-68
2023/05/12 06:17:01;;;;;;;10.90;5.70;;;;;;;15.18;35.09;100120.77;79839;1298;3011796;-68
2023/05/12 06:19:28;;;;;;;13.80;5.00;;;;;;;15.23;35.48;100117.08;78548;1292;3050106;-66
2023/05/12 06:21:56;;;;;;;11.30;5.30;;;;;;;15.34;35.15;100115.04;79688;1294;3013332;-68
2023/05/12 06:24:23;;;;;;;10.30;4.70;;;;;;;15.38;34.86;100116.37;79531;1293;3013641;-64
2023/05/12 06:26:51;;;;;;;6.70;3.90;;;;;;;15.52;34.38;100118.55;78424;1293;3048276;-69
2023/05/12 06:29:18;;;;;;;8.10;4.00;;;;;;;15.66;34.09;100119.70;79659;1301;3019125;-66
2023/05/12 06:31:45;;;;;;;13.00;4.50;;;;;;;15.78;33.55;100116.01;79704;1293;3011525;-70
2023/05/12 06:34:12;;;;;;;9.10;4.30;;;;;;;15.85;33.22;100116.25;78549;1292;3050738;-69
2023/05/12 06:36:40;;;;;;;7.50;4.40;;;;;;;15.88;33.35;100118.30;79885;1293;3013160;-67
2023/05/12 06:39:07;;;;;;;11.40;4.10;;;;;;;15.93;33.55;100114.77;79628;1293;3011661;-67
2023/05/12 06:41:35;;;;;;;9.30;4.90;;;;;;;16.00;33.60;100118.02;78656;1295;3049752;-67
2023/05/12 06:44:05;;;;;;;11.30;4.80;;;;;;;16.05;33.44;100115.64;79858;1297;3013103;-69
2023/05/12 06:46:34;;;;;;;10.80;4.80;;;;;;;16.05;32.64;100119.00;79222;1297;3011887;-65
2023/05/12 06:49:00;;;;;;;7.90;4.00;;;;;;;16.17;32.61;100119.94;79692;1293;3012961;-66
2023/05/12 06:51:27;;;;;;;7.00;3.60;;;;;;;16.31;32.23;100123.66;79746;1298;3011849;-69
2023/05/12 06:53:55;;;;;;;13.30;4.20;;;;;;;16.36;32.12;100124.91;78452;1293;3026435;-70
2023/05/12 06:56:22;;;;;;;8.50;4.40;;;;;;;16.38;31.65;100125.15;79859;1293;3013728;-68
2023/05/12 06:58:48;;;;;;;10.40;4.10;;;;;;;16.48;30.83;100123.16;79626;1293;3011896;-66
2023/05/12 07:01:17;;;;;;;15.40;4.50;;;;;;;16.56;31.21;100120.72;78647;1297;3026163;-70
2023/05/12 07:03:43;;;;;;;10.40;4.70;;;;;;;16.67;31.78;100124.01;79854;1297;3013806;-65
2023/05/12 07:06:10;;;;;;;11.10;4.90;;;;;;;16.66;30.99;100126.24;79768;1296;3013217;-67
2023/05/12 07:08:38;;;;;;;8.30;4.20;;;;;;;16.66;31.07;100122.52;78597;1298;3047999;-66
2023/05/12 07:11:04;;;;;;;10.10;4.40;;;;;;;16.65;30.66;100122.23;79723;1295;3018406;-67
2023/05/12 07:13:31;;;;;;;11.30;5.20;;;;;;;16.75;31.43;100123.76;79589;1294;3011871;-68
2023/05/12 07:15:59;;;;;;;7.50;4.70;;;;;;;16.79;30.79;100122.77;78580;1297;3026216;-66
2023/05/12 07:18:25;;;;;;;7.60;4.80;;;;;;;16.91;30.02;100127.52;80023;1293;3013180;-69
2023/05/12 07:20:52;;;;;;;9.80;4.70;;;;;;;16.99;30.23;100125.52;79837;1293;3011885;-68
2023/05/12 07:23:20;;;;;;;9.90;4.70;;;;;;;17.14;30.33;100129.54;78325;1295;3028578;-66
2023/05/12 07:25:46;;;;;;;9.20;4.70;;;;;;;17.23;30.40;100126.48;79699;1293;3013598;-67
2023/05/12 07:28:13;;;;;;;8.10;3.30;;;;;;;17.27;30.26;100129.38;79884;1292;3011716;-70
2023/05/12 07:30:41;;;;;;;7.20;3.10;;;;;;;17.35;29.72;100124.85;78674;1298;3024724;-70
2023/05/12 07:33:07;;;;;;;4.40;2.40;;;;;;;17.43;27.86;100125.23;79994;1295;3014200;-67
2023/05/12 07:35:35;;;;;;;5.50;2.80;;;;;;;17.49;28.20;100130.46;80503;1295;3013099;-66
2023/05/12 07:38:03;;;;;;;2.80;2.00;;;;;;;17.59;28.81;100127.58;79448;1298;3026498;-64
2023/05/12 07:40:30;;;;;;;5.60;2.20;;;;;;;17.71;27.92;100124.45;80492;1293;3013252;-66
2023/05/12 07:42:56;;;;;;;6.70;2.20;;;;;;;17.76;27.47;100127.63;79935;1294;3011892;-67
2023/05/12 07:45:24;;;;;;;5.70;2.20;;;;;;;17.90;28.01;100126.55;78602;1296;3052289;-66
2023/05/12 07:47:51;;;;;;;3.00;1.70;;;;;;;18.03;27.37;100119.65;79598;1295;3013108;-65
2023/05/12 07:50:17;;;;;;;3.50;1.40;;;;;;;18.16;26.78;100118.23;80018;1293;3013463;-68
2023/05/12 07:52:48;;;;;;;2.70;1.40;;;;;;;18.27;26.95;100116.81;78557;1295;3026045;-65
2023/05/12 07:55:15;;;;;;;8.60;2.20;;;;;;;18.40;27.14;100120.72;79753;1298;3011292;-68
2023/05/12 07:57:44;;;;;;;4.30;2.60;;;;;;;18.48;27.12;100118.45;79453;1297;3013175;-68
2023/05/12 08:00:12;;;;;;;4.90;3.20;;;;;;;18.33;27.19;100111.85;79860;1298;3019288;-70
2023/05/12 08:02:43;;;;;;;7.50;2.90;;;;;;;18.25;27.53;100111.95;78678;1297;3069106;-73
2023/05/12 08:05:09;;;;;;;7.10;3.20;;;;;;;18.36;27.82;100112.48;80101;1298;3013292;-70
2023/05/12 08:07:37;;;;;;;8.30;3.50;;;;;;;18.47;28.21;100111.62;79834;1292;3011763;-66
2023/05/12 08:10:05;;;;;;;6.90;3.60;;;;;;;18.60;28.16;100107.33;78579;1292;3054677;-66
2023/05/12 08:12:32;;;;;;;7.00;3.40;;;;;;;18.69;27.95;100107.80;79952;1296;3014960;-71
2023/05/12 08:14:59;;;;;;;8.50;3.80;;;;;;;18.75;27.21;100107.16;80033;1294;3011754;-70
2023/05/12 08:17:26;;;;;;;7.50;3.00;;;;;;;18.87;27.46;100107.58;78524;1301;3068026;-68
2023/05/12 08:19:53;;;;;;;4.80;2.20;;;;;;;18.99;27.48;100110.30;79876;1292;3013048;-71
2023/05/12 08:22:19;;;;;;;11.40;3.10;;;;;;;19.12;27.15;100105.59;79868;1293;3011752;-68
2023/05/12 08:24:47;;;;;;;10.40;2.80;;;;;;;19.18;27.14;100105.83;78296;1293;3026688;-70
2023/05/12 08:27:14;;;;;;;6.60;2.40;;;;;;;19.33;27.43;100105.09;79849;1298;3013319;-67
2023/05/12 08:29:40;;;;;;;7.60;2.00;;;;;;;19.28;26.65;100111.46;79790;1298;3012754;-74
2023/05/12 08:32:08;;;;;;;3.90;1.90;;;;;;;19.25;26.89;100099.48;78687;1292;3025755;-69
2023/05/12 08:34:35;;;;;;;5.00;2.20;;;;;;;19.26;26.84;100091.60;79813;1292;3013715;-71
2023/05/12 08:37:01;;;;;;;5.80;2.20;;;;;;;19.34;26.79;100087.90;79749;1298;3013991;-69
2023/05/12 08:39:30;;;;;;;5.00;2.60;;;;;;;19.50;26.78;100086.15;78613;1293;3028689;-70
2023/05/12 08:42:25;;;;;;;5.40;2.80;;;;;;;19.67;26.77;100086.83;79601;1301;3012921;-72
2023/05/12 08:44:53;;;;;;;7.00;3.50;;;;;;;19.79;26.62;100081.60;78526;1298;3053095;-71
2023/05/12 08:47:21;;;;;;;5.50;2.50;;;;;;;19.97;26.28;100083.92;79761;1295;3011980;-68
2023/05/12 08:49:50;;;;;;;5.00;2.20;;;;;;;20.04;26.26;100084.21;79587;1293;3011625;-70
2023/05/12 08:52:21;;;;;;;7.20;2.00;;;;;;;20.18;25.78;100084.58;78587;1295;3049527;-66
2023/05/12 08:54:48;;;;;;;3.90;2.20;;;;;;;20.24;25.28;100080.85;79503;1301;3013169;-63
2023/05/12 08:57:17;;;;;;;8.30;2.40;;;;;;;20.40;25.55;100080.92;79370;1297;3011554;-63
2023/05/12 08:59:43;;;;;;;4.00;2.10;;;;;;;20.37;25.31;100078.73;79472;1298;3012936;-67
2023/05/12 09:02:10;;;;;;;3.30;1.70;;;;;;;20.48;25.20;100079.48;79684;1293;3013761;-67
2023/05/12 09:04:38;;;;;;;3.50;1.60;;;;;;;20.44;25.05;100069.88;78366;1292;3028246;-67
2023/05/12 09:07:07;;;;;;;3.90;2.10;;;;;;;20.58;25.34;100071.23;79770;1293;3020309;-61
2023/05/12 09:09:37;;;;;;;5.20;2.20;;;;;;;20.74;24.85;100071.23;79147;1294;3013988;-61
2023/05/12 09:12:04;;;;;;;4.90;1.70;;;;;;;20.47;24.48;100074.11;79439;1293;3012923;-60
2023/05/12 09:14:32;;;;;;;3.90;1.60;;;;;;;20.66;24.31;100073.79;79763;1294;3011602;-63
2023/05/12 09:17:02;;;;;;;3.00;1.80;;;;;;;20.62;23.86;100071.26;78477;1298;3053614;-63
2023/05/12 09:19:30;;;;;;;4.90;1.90;;;;;;;20.83;23.68;100071.44;79736;1295;3011647;-61
2023/05/12 09:21:59;;;;;;;5.60;1.60;;;;;;;20.86;23.16;100063.20;78989;1293;3011693;-62
2023/05/12 09:24:36;;;;;;;3.20;1.40;;;;;;;20.97;23.29;100058.48;79699;1293;3018522;-64
2023/05/12 09:27:04;;;;;;;4.90;1.50;;;;;;;21.00;23.52;100061.69;78346;1306;3053757;-65
2023/05/12 09:29:34;;;;;;;4.10;1.60;;;;;;;21.08;23.71;100054.51;79628;1308;3013552;-65
2023/05/12 09:32:03;;;;;;;7.60;1.30;;;;;;;20.74;23.26;100059.33;79119;1295;3012968;-63
2023/05/12 09:34:34;;;;;;;5.40;1.60;;;;;;;20.62;23.85;100054.02;79834;1296;3013504;-64
2023/05/12 09:37:04;;;;;;;13.20;2.30;;;;;;;20.48;24.46;100053.16;78298;1293;3051195;-62
2023/05/12 09:39:31;;;;;;;6.20;1.90;;;;;;;20.34;24.84;100056.83;79620;1293;3012861;-62
2023/05/12 09:41:57;;;;;;;3.10;2.20;;;;;;;20.47;25.02;100052.07;79662;1293;3011977;-64
2023/05/12 09:44:27;;;;;;;4.00;2.00;;;;;;;20.65;25.15;100049.09;78386;1298;3049978;-64
2023/05/12 09:46:54;;;;;;;4.10;1.80;;;;;;;20.96;24.89;100048.03;79562;1295;3012792;-65
2023/05/12 09:49:22;;;;;;;4.00;2.20;;;;;;;21.17;24.58;100046.88;79442;1298;3013079;-63
2023/05/12 09:51:52;;;;;;;7.20;2.30;;;;;;;21.22;24.73;100036.84;78265;1295;3051419;-65
2023/05/12 09:54:30;;;;;;;3.10;2.10;;;;;;;21.28;24.54;100028.77;79565;1298;3011659;-74
2023/05/12 09:57:00;;;;;;;3.10;2.00;;;;;;;21.48;24.66;100033.20;78241;1297;3048573;-68
2023/05/12 09:59:34;;;;;;;4.90;2.10;;;;;;;21.58;24.42;100033.91;79505;1298;3012853;-64
2023/05/12 10:02:04;;;;;;;7.30;2.10;;;;;;;21.71;24.05;100033.91;78280;1297;3050607;-65
2023/05/12 10:04:44;;;;;;;5.40;1.90;;;;;;;21.59;23.41;100033.31;79556;1298;3013711;-65
2023/05/12 10:07:12;;;;;;;5.10;2.30;;;;;;;21.29;23.79;100039.81;78299;1298;3053671;-67
2023/05/12 10:09:41;;;;;;;3.70;2.10;;;;;;;21.21;23.85;100037.64;79429;1300;3013710;-65
2023/05/12 10:12:08;;;;;;;4.80;1.60;;;;;;;21.34;23.71;100029.61;79518;1295;3011796;-63
2023/05/12 10:14:36;;;;;;;7.40;2.00;;;;;;;21.58;23.99;100029.48;78219;1298;3049935;-64
2023/05/12 10:17:04;;;;;;;6.40;1.70;;;;;;;21.78;23.36;100027.27;79545;1296;3018934;-64
2023/05/12 10:19:31;;;;;;;3.50;1.70;;;;;;;21.89;22.76;100021.05;79770;1298;3012804;-65
2023/05/12 10:21:59;;;;;;;5.70;2.00;;;;;;;22.02;22.83;100016.23;78248;1301;3054097;-64
2023/05/12 10:24:26;;;;;;;4.10;1.80;;;;;;;21.81;22.85;100011.17;79546;1297;3014000;-62
2023/05/12 10:26:56;;;;;;;4.50;1.50;;;;;;;21.81;22.84;100016.13;79636;1297;3011895;-62
2023/05/12 10:29:28;;;;;;;3.90;1.70;;;;;;;21.89;22.85;100012.84;78404;1297;3048534;-63
2023/05/12 10:31:56;;;;;;;4.00;1.90;;;;;;;21.80;22.85;100013.55;79760;1306;3011804;-63
2023/05/12 10:34:34;;;;;;;3.50;1.70;;;;;;;21.45;22.98;100018.19;78326;1297;3049335;-66
2023/05/12 10:37:09;;;;;;;4.10;1.90;;;;;;;21.47;23.22;100021.73;78275;1298;3053563;-66
2023/05/12 10:39:51;;;;;;;4.60;2.30;;;;;;;21.56;23.14;100026.60;79004;1298;3012692;-59
2023/05/12 10:42:25;;;;;;;3.70;2.10;;;;;;;21.63;22.96;100021.66;78305;1298;3053357;-63
2023/05/12 10:44:55;;;;;;;3.90;2.10;;;;;;;21.45;23.52;100019.77;78968;1296;3013246;-62
2023/05/12 10:47:29;;;;;;;6.30;1.80;;;;;;;21.39;23.40;100017.75;79394;1301;3013520;-65
2023/05/12 10:50:00;;;;;;;4.70;2.40;;;;;;;21.66;22.97;100016.02;78269;1295;3056015;-66
2023/05/12 10:52:26;;;;;;;5.70;2.10;;;;;;;22.05;22.63;100008.23;79270;1301;3011624;-66
2023/05/12 10:54:59;;;;;;;5.30;2.10;;;;;;;22.16;22.24;100002.52;78817;1301;3011662;-62
2023/05/12 10:57:26;;;;;;;4.00;1.80;;;;;;;22.28;21.79;100003.40;79568;1296;3011348;-65
2023/05/12 10:59:58;;;;;;;3.70;1.80;;;;;;;22.33;21.56;100003.63;78186;1298;3025939;-65
2023/05/12 11:02:32;;;;;;;5.30;2.00;;;;;;;22.47;21.28;100005.06;79464;1298;3012882;-66
2023/05/12 11:05:04;;;;;;;3.20;1.70;;;;;;;22.64;21.44;100003.38;78416;1298;3070294;-61
2023/05/12 11:07:32;;;;;;;3.20;1.40;;;;;;;22.79;21.24;100000.15;79580;1296;3011902;-65
2023/05/12 11:10:01;;;;;;;2.80;1.50;;;;;;;22.97;21.00;99995.84;78333;1298;3055900;-66
2023/05/12 11:12:34;;;;;;;4.50;1.60;;;;;;;23.18;20.73;99992.93;79608;1293;3013141;-69
2023/05/12 11:15:02;;;;;;;6.00;1.60;;;;;;;23.37;20.45;99991.10;78354;1296;3049427;-64
2023/05/12 11:17:29;;;;;;;5.00;1.70;;;;;;;23.44;20.28;99987.16;79851;1298;3012704;-68
2023/05/12 11:19:55;;;;;;;3.70;1.60;;;;;;;23.39;20.51;99983.56;79494;1298;3011341;-66
2023/05/12 11:22:23;;;;;;;3.20;1.80;;;;;;;23.01;20.82;99987.15;78420;1296;3051016;-66
2023/05/12 11:24:51;;;;;;;2.50;1.30;;;;;;;22.73;21.05;99993.80;79589;1298;3018990;-69
2023/05/12 11:27:19;;;;;;;3.50;1.30;;;;;;;22.44;20.95;99989.86;79690;1294;3011361;-63
2023/05/12 11:29:58;;;;;;;1.90;1.30;;;;;;;22.15;21.35;99988.66;78542;1296;3050555;-69
2023/05/12 11:32:26;;;;;;;5.10;1.50;;;;;;;22.14;21.49;99989.46;78489;1298;3052597;-66
2023/05/12 11:34:52;;;;;;;4.40;1.70;;;;;;;22.37;21.42;99995.60;80068;1296;3013198;-61
2023/05/12 11:37:19;;;;;;;3.90;1.50;;;;;;;22.68;21.18;99995.27;80008;1298;3011690;-69
2023/05/12 11:39:48;;;;;;;2.50;1.70;;;;;;;22.78;20.84;99998.50;78741;1296;3056618;-62
2023/05/12 11:42:14;;;;;;;4.40;1.90;;;;;;;23.06;20.39;99994.85;80548;1298;3018674;-62
2023/05/12 11:44:48;;;;;;;4.40;1.40;;;;;;;23.26;19.97;99990.83;80581;1298;3011586;-59
2023/05/12 11:47:18;;;;;;;2.20;1.50;;;;;;;23.41;19.93;99986.41;79222;1298;3052984;-62
2023/05/12 11:49:54;;;;;;;4.60;1.50;;;;;;;23.56;19.86;99980.66;79465;1300;3013167;-65
2023/05/12 11:52:22;;;;;;;7.40;1.60;;;;;;;23.73;19.79;99972.25;78152;1298;3069626;-62
2023/05/12 11:55:04;;;;;;;2.70;1.60;;;;;;;23.81;20.00;99973.36;79562;1295;3014454;-74
2023/05/12 11:57:34;;;;;;;6.60;1.60;;;;;;;23.96;19.55;99972.89;78279;1298;3048767;-63
2023/05/12 12:00:06;;;;;;;5.80;2.00;;;;;;;24.15;19.22;99974.02;79727;1298;3013185;-66
2023/05/12 12:02:42;;;;;;;6.60;1.70;;;;;;;24.25;18.97;99971.83;78396;1298;3049215;-70
2023/05/12 12:05:17;;;;;;;3.70;1.70;;;;;;;24.15;19.40;99969.59;78986;1298;3011901;-68
2023/05/12 12:07:46;;;;;;;5.60;1.90;;;;;;;23.81;19.57;99967.88;79075;1295;3011653;-69
2023/05/12 12:10:15;;;;;;;1.80;1.30;;;;;;;23.42;19.60;99965.59;79559;1298;3012915;-69
2023/05/12 12:12:42;;;;;;;2.90;1.70;;;;;;;23.10;20.00;99974.84;79608;1298;3011747;-64
2023/05/12 12:15:10;;;;;;;2.80;1.70;;;;;;;22.94;20.26;99979.90;78259;1298;3051707;-66
2023/05/12 12:17:38;;;;;;;3.00;1.70;;;;;;;22.86;20.33;99976.78;79637;1296;3011706;-70
2023/05/12 12:20:06;;;;;;;6.90;1.40;;;;;;;22.63;20.24;99975.02;79591;1295;3013051;-62
2023/05/12 12:22:34;;;;;;;2.90;1.70;;;;;;;22.48;20.36;99974.14;78381;1298;3050194;-65
2023/05/12 12:25:01;;;;;;;2.30;1.40;;;;;;;22.28;20.62;99974.14;79458;1299;3013702;-59
2023/05/12 12:27:28;;;;;;;2.30;1.30;;;;;;;22.23;20.94;99975.24;79425;1298;3013452;-72
2023/05/12 12:29:56;;;;;;;3.50;1.50;;;;;;;22.52;20.62;99973.11;78178;1299;3052032;-67
2023/05/12 12:32:23;;;;;;;2.10;1.50;;;;;;;22.79;20.63;99964.86;79359;1298;3012791;-65
2023/05/12 12:34:50;;;;;;;4.90;1.40;;;;;;;23.16;20.25;99971.04;79443;1298;3011668;-65
2023/05/12 12:37:18;;;;;;;2.90;1.30;;;;;;;23.06;19.87;99967.95;78313;1299;3048690;-64
2023/05/12 12:39:46;;;;;;;2.50;1.30;;;;;;;23.12;19.93;99964.63;79443;1298;3018764;-67
2023/05/12 12:42:14;;;;;;;4.00;1.70;;;;;;;23.34;19.70;99960.02;79610;1298;3011679;-69
2023/05/12 12:44:42;;;;;;;2.50;1.50;;;;;;;23.70;19.26;99955.98;78198;1296;3051532;-69
2023/05/12 12:47:09;;;;;;;2.10;1.60;;;;;;;23.94;18.98;99956.22;79546;1295;3016044;-69
2023/05/12 12:49:35;;;;;;;3.90;1.60;;;;;;;24.23;19.13;99951.09;79510;1297;3013461;-66
2023/05/12 12:52:04;;;;;;;4.40;1.80;;;;;;;24.52;19.04;99948.58;78300;1298;3049515;-63
2023/05/12 12:54:30;;;;;;;4.20;1.40;;;;;;;24.73;18.79;99943.81;79404;1298;3013542;-66
2023/05/12 12:56:57;;;;;;;3.40;1.50;;;;;;;24.78;18.49;99948.25;79453;1298;3013649;-65
2023/05/12 12:59:25;;;;;;;10.00;1.60;;;;;;;24.92;18.81;99945.28;78326;1307;3050780;-63
2023/05/12 13:01:52;;;;;;;3.00;1.40;;;;;;;25.09;18.32;99952.95;79459;1296;3013876;-66
2023/05/12 13:04:21;;;;;;;3.30;1.50;;;;;;;25.03;18.45;99945.83;79417;1296;3011843;-67
2023/05/12 13:06:49;;;;;;;8.60;1.50;;;;;;;25.03;18.56;99952.27;78400;1295;3050063;-68
2023/05/12 13:09:16;;;;;;;2.50;1.70;;;;;;;25.20;18.41;99953.86;79495;1298;3012942;-63
2023/05/12 13:11:43;;;;;;;2.10;1.40;;;;;;;25.41;18.52;99952.75;79576;1298;3012481;-63
2023/05/12 13:14:11;;;;;;;5.80;1.60;;;;;;;25.53;18.23;99952.05;78298;1298;3025919;-68
2023/05/12 13:16:37;;;;;;;2.70;1.30;;;;;;;25.70;18.15;99951.02;79537;1295;3013615;-65
2023/05/12 13:19:04;;;;;;;5.30;1.50;;;;;;;25.70;17.95;99948.98;79471;1298;3011956;-69
2023/05/12 13:21:32;;;;;;;4.90;1.40;;;;;;;25.37;18.24;99951.80;78254;1297;3028967;-68
2023/05/12 13:23:59;;;;;;;6.00;1.60;;;;;;;25.14;18.38;99954.78;79443;1307;3013177;-69
2023/05/12 13:26:26;;;;;;;2.30;1.70;;;;;;;24.92;18.66;99953.37;79428;1297;3011842;-67
2023/05/12 13:28:53;;;;;;;4.50;1.90;;;;;;;24.79;18.74;99956.55;77894;1298;3051246;-68
2023/05/12 13:31:20;;;;;;;4.10;1.50;;;;;;;24.81;18.53;99954.73;79326;1295;3020549;-68
2023/05/12 13:33:46;;;;;;;3.80;1.70;;;;;;;24.58;18.49;99950.79;79409;1298;3011608;-66
2023/05/12 13:36:14;;;;;;;2.60;1.20;;;;;;;24.58;18.47;99952.06;78328;1300;3026356;-69
2023/05/12 13:38:41;;;;;;;4.90;1.50;;;;;;;24.74;18.12;99951.05;79538;1306;3020421;-67
2023/05/12 13:41:08;;;;;;;3.50;1.60;;;;;;;24.95;17.88;99944.19;79511;1298;3012936;-65
2023/05/12 13:43:36;;;;;;;2.90;1.30;;;;;;;24.83;18.13;99944.80;78409;1298;3026307;-64
2023/05/12 13:46:02;;;;;;;4.30;1.40;;;;;;;24.56;18.56;99946.26;79671;1296;3013383;-65
2023/05/12 13:48:29;;;;;;;2.90;1.50;;;;;;;24.61;18.44;99946.95;79562;1293;3011569;-65
2023/05/12 13:50:57;;;;;;;2.60;1.30;;;;;;;24.77;18.44;99946.95;78333;1297;3025066;-70
2023/05/12 13:53:24;;;;;;;3.10;1.20;;;;;;;25.01;18.29;99944.05;79719;1298;3016182;-65
2023/05/12 13:55:50;;;;;;;2.70;1.50;;;;;;;25.28;17.87;99946.12;79543;1294;3013359;-67
2023/05/12 13:58:18;;;;;;;3.50;1.30;;;;;;;25.43;17.76;99945.85;78327;1298;3028147;-66
2023/05/12 14:00:46;;;;;;;5.20;1.50;;;;;;;25.71;17.63;99947.66;79590;1296;3020792;-65
2023/05/12 14:03:13;;;;;;;2.30;1.20;;;;;;;26.13;17.14;99946.69;79647;1295;3011530;-67
2023/05/12 14:05:41;;;;;;;2.10;1.20;;;;;;;26.15;16.76;99947.05;78497;1298;3051591;-67
2023/05/12 14:08:08;;;;;;;4.10;1.60;;;;;;;26.22;16.60;99941.36;79588;1297;3013646;-72
2023/05/12 14:10:35;;;;;;;7.80;1.60;;;;;;;26.27;16.56;99938.01;79567;1298;3011942;-67
2023/05/12 14:13:03;;;;;;;2.20;1.30;;;;;;;26.29;16.99;99935.30;78348;1293;3027927;-66
2023/05/12 14:15:30;;;;;;;3.10;1.50;;;;;;;26.46;16.94;99939.86;79641;1298;3012833;-68
2023/05/12 14:17:57;;;;;;;4.10;1.40;;;;;;;26.60;16.90;99939.67;79519;1297;3013432;-64
2023/05/12 14:20:25;;;;;;;2.70;1.30;;;;;;;26.65;16.90;99936.42;78495;1297;3026146;-62
2023/05/12 14:22:51;;;;;;;2.90;1.20;;;;;;;26.72;16.85;99935.70;79563;1298;3020763;-64
2023/05/12 14:25:18;;;;;;;2.80;1.30;;;;;;;26.65;17.14;99939.27;79551;1295;3012887;-71
2023/05/12 14:27:46;;;;;;;3.60;1.40;;;;;;;26.68;16.88;99939.46;78334;1293;3028293;-65
2023/05/12 14:30:13;;;;;;;4.60;1.20;;;;;;;26.46;17.15;99941.89;79608;1295;3013356;-69
2023/05/12 14:32:41;;;;;;;3.40;1.30;;;;;;;26.26;17.37;99935.96;79608;1293;3013179;-60
2023/05/12 14:35:09;;;;;;;2.20;1.30;;;;;;;26.44;17.26;99939.92;78397;1299;3049426;-68
2023/05/12 14:37:36;;;;;;;2.40;1.50;;;;;;;26.46;17.41;99940.98;79662;1306;3013063;-69
2023/05/12 14:40:04;;;;;;;3.90;1.40;;;;;;;26.31;17.47;99936.83;79546;1298;3011752;-68
2023/05/12 14:42:32;;;;;;;2.10;1.20;;;;;;;26.16;17.65;99939.66;78595;1298;3050888;-66
2023/05/12 14:44:59;;;;;;;1.90;1.30;;;;;;;26.08;17.87;99937.20;79618;1293;3014817;-69
2023/05/12 14:47:26;;;;;;;2.90;1.50;;;;;;;25.72;18.15;99938.41;79584;1292;3013089;-69
2023/05/12 14:49:53;;;;;;;2.50;1.40;;;;;;;25.32;18.34;99940.87;78483;1298;3050341;-68